sensor_id;sensor_type;location;lat;lon;timestamp;pressure;altitude;pressure_sealevel;temperature;humidity
64064;BME280;50314;50.618;10.642;2023-03-19T00:01:56;96373.00;;;17.90;23.64
64064;BME280;50314;50.618;10.642;2023-03-19T00:04:23;96371.22;;;17.90;23.56
64064;BME280;50314;50.618;10.642;2023-03-19T00:06:49;96379.34;;;17.89;23.56
64064;BME280;50314;50.618;10.642;2023-03-19T00:09:15;96370.88;;;17.85;23.59
64064;BME280;50314;50.618;10.642;2023-03-19T00:11:41;96377.19;;;17.84;23.19
64064;BME280;50314;50.618;10.642;2023-03-19T00:14:07;96372.84;;;17.83;23.50
64064;BME280;50314;50.618;10.642;2023-03-19T00:16:33;96377.34;;;17.82;23.62
64064;BME280;50314;50.618;10.642;2023-03-19T00:18:58;96379.38;;;17.80;23.38
64064;BME280;50314;50.618;10.642;2023-03-19T00:21:24;96378.53;;;17.80;23.49
64064;BME280;50314;50.618;10.642;2023-03-19T00:23:50;96378.69;;;17.78;23.44
64064;BME280;50314;50.618;10.642;2023-03-19T00:26:16;96375.19;;;17.78;23.24
64064;BME280;50314;50.618;10.642;2023-03-19T00:28:41;96383.38;;;17.76;23.50
64064;BME280;50314;50.618;10.642;2023-03-19T00:31:09;96380.03;;;17.74;23.69
64064;BME280;50314;50.618;10.642;2023-03-19T00:33:35;96387.19;;;17.74;23.58
64064;BME280;50314;50.618;10.642;2023-03-19T00:36:01;96385.69;;;17.71;23.51
64064;BME280;50314;50.618;10.642;2023-03-19T00:38:26;96387.53;;;17.71;23.51
64064;BME280;50314;50.618;10.642;2023-03-19T00:40:52;96382.34;;;17.69;23.68
64064;BME280;50314;50.618;10.642;2023-03-19T00:43:17;96386.84;;;17.69;23.24
64064;BME280;50314;50.618;10.642;2023-03-19T00:45:43;96390.50;;;17.68;23.63
64064;BME280;50314;50.618;10.642;2023-03-19T00:48:08;96393.31;;;17.66;23.52
64064;BME280;50314;50.618;10.642;2023-03-19T00:50:33;96391.03;;;17.63;23.38
64064;BME280;50314;50.618;10.642;2023-03-19T00:52:59;96384.84;;;17.63;23.54
64064;BME280;50314;50.618;10.642;2023-03-19T00:55:25;96384.00;;;17.62;23.51
64064;BME280;50314;50.618;10.642;2023-03-19T00:57:51;96378.03;;;17.60;23.94
64064;BME280;50314;50.618;10.642;2023-03-19T01:00:18;96377.19;;;17.59;23.31
64064;BME280;50314;50.618;10.642;2023-03-19T01:02:43;96374.69;;;17.58;23.55
64064;BME280;50314;50.618;10.642;2023-03-19T01:05:09;96378.34;;;17.57;23.68
64064;BME280;50314;50.618;10.642;2023-03-19T01:07:34;96377.53;;;17.56;23.60
64064;BME280;50314;50.618;10.642;2023-03-19T01:10:00;96380.19;;;17.56;23.52
64064;BME280;50314;50.618;10.642;2023-03-19T01:12:26;96380.34;;;17.55;23.65
64064;BME280;50314;50.618;10.642;2023-03-19T01:14:51;96373.34;;;17.54;23.34
64064;BME280;50314;50.618;10.642;2023-03-19T01:17:16;96372.69;;;17.52;23.47
64064;BME280;50314;50.618;10.642;2023-03-19T01:19:42;96379.00;;;17.51;23.62
64064;BME280;50314;50.618;10.642;2023-03-19T01:22:07;96377.34;;;17.50;23.58
64064;BME280;50314;50.618;10.642;2023-03-19T01:24:33;96376.50;;;17.49;23.29
64064;BME280;50314;50.618;10.642;2023-03-19T01:26:59;96376.69;;;17.48;23.54
64064;BME280;50314;50.618;10.642;2023-03-19T01:29:24;96376.81;;;17.46;23.66
64064;BME280;50314;50.618;10.642;2023-03-19T01:31:50;96382.16;;;17.46;23.48
64064;BME280;50314;50.618;10.642;2023-03-19T01:34:15;96374.31;;;17.45;23.20
64064;BME280;50314;50.618;10.642;2023-03-19T01:36:41;96375.31;;;17.44;23.63
64064;BME280;50314;50.618;10.642;2023-03-19T01:39:06;96371.00;;;17.43;23.40
64064;BME280;50314;50.618;10.642;2023-03-19T01:41:32;96369.31;;;17.42;23.66
64064;BME280;50314;50.618;10.642;2023-03-19T01:43:57;96371.97;;;17.42;23.59
64064;BME280;50314;50.618;10.642;2023-03-19T01:46:31;96375.28;;;17.35;23.64
64064;BME280;50314;50.618;10.642;2023-03-19T01:49:04;96374.63;;;17.33;23.62
64064;BME280;50314;50.618;10.642;2023-03-19T01:51:40;96362.47;;;17.31;23.84
64064;BME280;50314;50.618;10.642;2023-03-19T01:54:10;96366.16;;;17.30;23.37
64064;BME280;50314;50.618;10.642;2023-03-19T01:56:38;96368.63;;;17.31;23.41
64064;BME280;50314;50.618;10.642;2023-03-19T01:59:21;96366.63;;;17.25;23.57
64064;BME280;50314;50.618;10.642;2023-03-19T02:02:09;96369.59;;;17.22;23.50
64064;BME280;50314;50.618;10.642;2023-03-19T02:04:39;96371.94;;;17.25;23.50
64064;BME280;50314;50.618;10.642;2023-03-19T02:07:07;96373.94;;;17.23;23.57
64064;BME280;50314;50.618;10.642;2023-03-19T02:09:33;96383.59;;;17.24;23.52
64064;BME280;50314;50.618;10.642;2023-03-19T02:12:00;96385.41;;;17.24;23.67
64064;BME280;50314;50.618;10.642;2023-03-19T02:14:26;96389.22;;;17.21;23.59
64064;BME280;50314;50.618;10.642;2023-03-19T02:16:53;96381.44;;;17.20;23.54
64064;BME280;50314;50.618;10.642;2023-03-19T02:19:34;96389.88;;;17.15;23.64
64064;BME280;50314;50.618;10.642;2023-03-19T02:22:03;96386.06;;;17.18;23.42
64064;BME280;50314;50.618;10.642;2023-03-19T02:24:35;96394.53;;;17.13;23.61
64064;BME280;50314;50.618;10.642;2023-03-19T02:27:06;96391.88;;;17.13;23.53
64064;BME280;50314;50.618;10.642;2023-03-19T02:29:33;96393.88;;;17.11;23.77
64064;BME280;50314;50.618;10.642;2023-03-19T02:31:59;96394.69;;;17.11;23.45
64064;BME280;50314;50.618;10.642;2023-03-19T02:37:23;96396.50;;;17.03;23.81
64064;BME280;50314;50.618;10.642;2023-03-19T02:40:10;96399.50;;;17.00;23.68
64064;BME280;50314;50.618;10.642;2023-03-19T02:42:37;96396.50;;;17.03;23.46
64064;BME280;50314;50.618;10.642;2023-03-19T02:45:03;96397.34;;;17.03;23.58
64064;BME280;50314;50.618;10.642;2023-03-19T02:47:29;96400.16;;;17.02;23.81
64064;BME280;50314;50.618;10.642;2023-03-19T02:49:54;96398.50;;;17.01;23.76
64064;BME280;50314;50.618;10.642;2023-03-19T02:52:21;96392.50;;;16.99;23.76
64064;BME280;50314;50.618;10.642;2023-03-19T02:54:47;96394.31;;;16.98;23.74
64064;BME280;50314;50.618;10.642;2023-03-19T02:57:12;96394.50;;;16.97;23.81
64064;BME280;50314;50.618;10.642;2023-03-19T02:59:38;96399.81;;;16.97;23.53
64064;BME280;50314;50.618;10.642;2023-03-19T03:02:04;96403.47;;;16.96;23.79
64064;BME280;50314;50.618;10.642;2023-03-19T03:04:30;96394.63;;;16.95;23.62
64064;BME280;50314;50.618;10.642;2023-03-19T03:06:56;96402.78;;;16.94;23.50
64064;BME280;50314;50.618;10.642;2023-03-19T03:09:22;96405.63;;;16.92;23.78
64064;BME280;50314;50.618;10.642;2023-03-19T03:11:48;96410.09;;;16.91;23.61
64064;BME280;50314;50.618;10.642;2023-03-19T03:14:13;96407.59;;;16.90;23.54
64064;BME280;50314;50.618;10.642;2023-03-19T03:16:38;96409.56;;;16.88;23.69
64064;BME280;50314;50.618;10.642;2023-03-19T03:19:04;96409.75;;;16.86;23.67
64064;BME280;50314;50.618;10.642;2023-03-19T03:21:30;96411.56;;;16.86;23.61
64064;BME280;50314;50.618;10.642;2023-03-19T03:23:55;96410.75;;;16.85;23.77
64064;BME280;50314;50.618;10.642;2023-03-19T03:26:21;96414.38;;;16.84;23.74
64064;BME280;50314;50.618;10.642;2023-03-19T03:28:47;96418.88;;;16.84;23.51
64064;BME280;50314;50.618;10.642;2023-03-19T03:31:13;96417.22;;;16.83;23.59
64064;BME280;50314;50.618;10.642;2023-03-19T03:33:39;96420.00;;;16.81;23.64
64064;BME280;50314;50.618;10.642;2023-03-19T03:36:05;96420.28;;;16.78;23.68
64064;BME280;50314;50.618;10.642;2023-03-19T03:38:30;96421.16;;;16.79;23.74
64064;BME280;50314;50.618;10.642;2023-03-19T03:40:57;96415.97;;;16.77;23.57
64064;BME280;50314;50.618;10.642;2023-03-19T03:43:23;96416.97;;;16.76;23.77
64064;BME280;50314;50.618;10.642;2023-03-19T03:45:48;96414.47;;;16.75;23.75
64064;BME280;50314;50.618;10.642;2023-03-19T03:48:15;96421.63;;;16.74;24.09
64064;BME280;50314;50.618;10.642;2023-03-19T03:50:40;96424.28;;;16.74;23.65
64064;BME280;50314;50.618;10.642;2023-03-19T03:53:06;96427.94;;;16.73;23.60
64064;BME280;50314;50.618;10.642;2023-03-19T03:55:33;96429.75;;;16.73;23.72
64064;BME280;50314;50.618;10.642;2023-03-19T03:57:58;96428.94;;;16.72;23.63
64064;BME280;50314;50.618;10.642;2023-03-19T04:00:24;96424.59;;;16.71;23.58
64064;BME280;50314;50.618;10.642;2023-03-19T04:02:51;96424.91;;;16.68;23.76
64064;BME280;50314;50.618;10.642;2023-03-19T04:05:16;96425.91;;;16.67;23.80
64064;BME280;50314;50.618;10.642;2023-03-19T04:07:42;96435.72;;;16.66;23.72
64064;BME280;50314;50.618;10.642;2023-03-19T04:10:09;96431.41;;;16.65;23.73
64064;BME280;50314;50.618;10.642;2023-03-19T04:12:36;96435.19;;;16.63;23.66
64064;BME280;50314;50.618;10.642;2023-03-19T04:15:03;96432.53;;;16.63;23.73
64064;BME280;50314;50.618;10.642;2023-03-19T04:17:29;96436.19;;;16.62;23.79
64064;BME280;50314;50.618;10.642;2023-03-19T04:19:54;96422.22;;;16.60;23.64
64064;BME280;50314;50.618;10.642;2023-03-19T04:22:20;96422.22;;;16.60;23.90
64064;BME280;50314;50.618;10.642;2023-03-19T04:24:46;96428.53;;;16.59;23.81
64064;BME280;50314;50.618;10.642;2023-03-19T04:27:11;96430.34;;;16.58;23.61
64064;BME280;50314;50.618;10.642;2023-03-19T04:29:37;96427.69;;;16.58;23.92
64064;BME280;50314;50.618;10.642;2023-03-19T04:32:02;96429.50;;;16.58;23.75
64064;BME280;50314;50.618;10.642;2023-03-19T04:34:28;96432.34;;;16.56;23.77
64064;BME280;50314;50.618;10.642;2023-03-19T04:36:54;96433.34;;;16.55;23.77
64064;BME280;50314;50.618;10.642;2023-03-19T04:39:20;96435.13;;;16.55;23.88
64064;BME280;50314;50.618;10.642;2023-03-19T04:41:46;96436.97;;;16.54;23.69
64064;BME280;50314;50.618;10.642;2023-03-19T04:44:11;96437.13;;;16.53;23.73
64064;BME280;50314;50.618;10.642;2023-03-19T04:46:37;96431.81;;;16.53;23.59
64064;BME280;50314;50.618;10.642;2023-03-19T04:49:03;96431.13;;;16.51;23.72
64064;BME280;50314;50.618;10.642;2023-03-19T04:51:28;96427.63;;;16.50;23.63
64064;BME280;50314;50.618;10.642;2023-03-19T04:53:54;96433.78;;;16.51;23.76
64064;BME280;50314;50.618;10.642;2023-03-19T04:56:19;96427.63;;;16.50;23.77
64064;BME280;50314;50.618;10.642;2023-03-19T04:58:46;96431.13;;;16.51;23.75
64064;BME280;50314;50.618;10.642;2023-03-19T05:01:11;96434.78;;;16.50;23.82
64064;BME280;50314;50.618;10.642;2023-03-19T05:03:36;96428.78;;;16.48;23.77
64064;BME280;50314;50.618;10.642;2023-03-19T05:06:02;96427.94;;;16.47;23.86
64064;BME280;50314;50.618;10.642;2023-03-19T05:08:27;96427.13;;;16.47;23.85
64064;BME280;50314;50.618;10.642;2023-03-19T05:10:53;96421.13;;;16.44;23.86
64064;BME280;50314;50.618;10.642;2023-03-19T05:13:18;96423.78;;;16.44;23.84
64064;BME280;50314;50.618;10.642;2023-03-19T05:15:44;96415.13;;;16.42;23.79
64064;BME280;50314;50.618;10.642;2023-03-19T05:18:11;96422.13;;;16.43;23.89
64064;BME280;50314;50.618;10.642;2023-03-19T05:20:37;96422.28;;;16.42;23.88
64064;BME280;50314;50.618;10.642;2023-03-19T05:23:03;96429.25;;;16.43;24.09
64064;BME280;50314;50.618;10.642;2023-03-19T05:25:29;96425.78;;;16.42;23.91
64064;BME280;50314;50.618;10.642;2023-03-19T05:27:55;96427.44;;;16.43;23.85
64064;BME280;50314;50.618;10.642;2023-03-19T05:30:21;96420.44;;;16.42;23.77
64064;BME280;50314;50.618;10.642;2023-03-19T05:32:48;96413.47;;;16.41;23.99
64064;BME280;50314;50.618;10.642;2023-03-19T05:35:14;96422.28;;;16.42;23.82
64064;BME280;50314;50.618;10.642;2023-03-19T05:37:40;96424.13;;;16.41;23.82
64064;BME280;50314;50.618;10.642;2023-03-19T05:40:06;96430.56;;;16.39;23.89
64064;BME280;50314;50.618;10.642;2023-03-19T05:42:32;96437.72;;;16.38;23.95
64064;BME280;50314;50.618;10.642;2023-03-19T05:44:57;96429.75;;;16.38;24.07
64064;BME280;50314;50.618;10.642;2023-03-19T05:47:23;96431.53;;;16.38;23.89
64064;BME280;50314;50.618;10.642;2023-03-19T05:49:48;96448.34;;;16.38;23.99
64064;BME280;50314;50.618;10.642;2023-03-19T05:52:14;96440.38;;;16.38;24.01
64064;BME280;50314;50.618;10.642;2023-03-19T05:54:39;96451.00;;;16.38;23.91
64064;BME280;50314;50.618;10.642;2023-03-19T05:57:05;96448.34;;;16.38;23.82
64064;BME280;50314;50.618;10.642;2023-03-19T05:59:32;96441.19;;;16.39;23.74
64064;BME280;50314;50.618;10.642;2023-03-19T06:01:58;96445.69;;;16.38;23.91
64064;BME280;50314;50.618;10.642;2023-03-19T06:04:23;96462.47;;;16.39;23.83
64064;BME280;50314;50.618;10.642;2023-03-19T06:06:51;96457.94;;;16.31;23.94
64064;BME280;50314;50.618;10.642;2023-03-19T06:09:16;96457.44;;;16.36;23.93
64064;BME280;50314;50.618;10.642;2023-03-19T06:11:42;96472.25;;;16.38;24.01
64064;BME280;50314;50.618;10.642;2023-03-19T06:14:07;96468.59;;;16.39;23.89
64064;BME280;50314;50.618;10.642;2023-03-19T06:16:33;96472.78;;;16.42;24.25
64064;BME280;50314;50.618;10.642;2023-03-19T06:18:59;96475.59;;;16.40;24.15
64064;BME280;50314;50.618;10.642;2023-03-19T06:21:25;96478.94;;;16.42;24.22
64064;BME280;50314;50.618;10.642;2023-03-19T06:23:54;96477.78;;;16.45;24.16
64064;BME280;50314;50.618;10.642;2023-03-19T06:26:21;96488.44;;;16.45;24.17
64064;BME280;50314;50.618;10.642;2023-03-19T06:28:47;96494.41;;;16.47;24.24
64064;BME280;50314;50.618;10.642;2023-03-19T06:31:12;96492.56;;;16.48;24.15
64064;BME280;50314;50.618;10.642;2023-03-19T06:33:38;96489.91;;;16.48;24.25
64064;BME280;50314;50.618;10.642;2023-03-19T06:36:04;96495.91;;;16.50;24.28
64064;BME280;50314;50.618;10.642;2023-03-19T06:38:29;96493.25;;;16.50;24.49
64064;BME280;50314;50.618;10.642;2023-03-19T06:40:55;96506.38;;;16.51;24.41
64064;BME280;50314;50.618;10.642;2023-03-19T06:43:21;96509.91;;;16.52;24.50
64064;BME280;50314;50.618;10.642;2023-03-19T06:45:46;96517.88;;;16.52;24.71
64064;BME280;50314;50.618;10.642;2023-03-19T06:48:12;96521.19;;;16.54;24.38
64064;BME280;50314;50.618;10.642;2023-03-19T06:50:37;96521.72;;;16.57;24.38
64064;BME280;50314;50.618;10.642;2023-03-19T06:53:02;96530.38;;;16.59;24.33
64064;BME280;50314;50.618;10.642;2023-03-19T06:55:28;96522.25;;;16.61;24.31
64064;BME280;50314;50.618;10.642;2023-03-19T06:57:55;96531.75;;;16.63;24.31
64064;BME280;50314;50.618;10.642;2023-03-19T07:00:21;96530.75;;;16.64;24.50
64064;BME280;50314;50.618;10.642;2023-03-19T07:02:46;96527.25;;;16.64;24.28
64064;BME280;50314;50.618;10.642;2023-03-19T07:05:12;96534.09;;;16.66;24.32
64064;BME280;50314;50.618;10.642;2023-03-19T07:07:38;96533.25;;;16.66;24.26
64064;BME280;50314;50.618;10.642;2023-03-19T07:10:04;96531.44;;;16.66;24.53
64064;BME280;50314;50.618;10.642;2023-03-19T07:12:30;96536.59;;;16.68;24.28
64064;BME280;50314;50.618;10.642;2023-03-19T07:14:56;96540.94;;;16.69;24.28
64064;BME280;50314;50.618;10.642;2023-03-19T07:17:22;96545.09;;;16.72;24.48
64064;BME280;50314;50.618;10.642;2023-03-19T07:19:48;96546.91;;;16.71;24.42
64064;BME280;50314;50.618;10.642;2023-03-19T07:22:14;96551.09;;;16.74;24.15
64064;BME280;50314;50.618;10.642;2023-03-19T07:24:39;96552.09;;;16.73;23.67
64064;BME280;50314;50.618;10.642;2023-03-19T07:27:05;96551.19;;;16.64;23.54
64064;BME280;50314;50.618;10.642;2023-03-19T07:29:30;96551.50;;;16.61;23.64
64064;BME280;50314;50.618;10.642;2023-03-19T07:31:56;96558.50;;;16.62;23.39
64064;BME280;50314;50.618;10.642;2023-03-19T07:34:21;96551.19;;;16.64;23.70
64064;BME280;50314;50.618;10.642;2023-03-19T07:36:47;96552.88;;;16.65;23.64
64064;BME280;50314;50.618;10.642;2023-03-19T07:39:13;96555.06;;;16.70;23.72
64064;BME280;50314;50.618;10.642;2023-03-19T07:41:39;96559.25;;;16.72;23.67
64064;BME280;50314;50.618;10.642;2023-03-19T07:44:05;96562.25;;;16.77;23.78
64064;BME280;50314;50.618;10.642;2023-03-19T07:46:30;96559.31;;;16.80;23.76
64064;BME280;50314;50.618;10.642;2023-03-19T07:48:56;96558.84;;;16.85;23.71
64064;BME280;50314;50.618;10.642;2023-03-19T07:51:21;96570.00;;;16.88;23.74
64064;BME280;50314;50.618;10.642;2023-03-19T07:53:47;96568.53;;;16.94;23.79
64064;BME280;50314;50.618;10.642;2023-03-19T07:56:13;96577.03;;;16.98;23.86
64064;BME280;50314;50.618;10.642;2023-03-19T07:58:38;96569.44;;;17.03;23.86
64064;BME280;50314;50.618;10.642;2023-03-19T08:01:04;96578.78;;;17.07;23.86
64064;BME280;50314;50.618;10.642;2023-03-19T08:03:30;96576.47;;;17.12;23.72
64064;BME280;50314;50.618;10.642;2023-03-19T08:05:55;96570.69;;;17.17;23.72
64064;BME280;50314;50.618;10.642;2023-03-19T08:08:20;96581.53;;;17.23;23.82
64064;BME280;50314;50.618;10.642;2023-03-19T08:10:46;96581.88;;;17.28;24.02
64064;BME280;50314;50.618;10.642;2023-03-19T08:13:12;96586.75;;;17.33;23.80
64064;BME280;50314;50.618;10.642;2023-03-19T08:15:38;96593.56;;;17.35;23.50
64064;BME280;50314;50.618;10.642;2023-03-19T08:18:04;96592.59;;;17.36;23.64
64064;BME280;50314;50.618;10.642;2023-03-19T08:20:31;96596.06;;;17.37;23.54
64064;BME280;50314;50.618;10.642;2023-03-19T08:22:57;96601.53;;;17.35;23.83
64064;BME280;50314;50.618;10.642;2023-03-19T08:25:23;96610.53;;;17.34;23.96
64064;BME280;50314;50.618;10.642;2023-03-19T08:27:49;96610.53;;;17.34;23.89
64064;BME280;50314;50.618;10.642;2023-03-19T08:30:15;96620.50;;;17.32;23.88
64064;BME280;50314;50.618;10.642;2023-03-19T08:32:41;96617.81;;;17.32;24.36
64064;BME280;50314;50.618;10.642;2023-03-19T08:35:09;96621.66;;;17.30;24.14
64064;BME280;50314;50.618;10.642;2023-03-19T08:37:34;96627.81;;;17.30;24.13
64064;BME280;50314;50.618;10.642;2023-03-19T08:40:00;96623.63;;;17.28;24.44
64064;BME280;50314;50.618;10.642;2023-03-19T08:42:25;96624.47;;;17.28;24.65
64064;BME280;50314;50.618;10.642;2023-03-19T08:44:51;96627.97;;;17.29;24.93
64064;BME280;50314;50.618;10.642;2023-03-19T08:47:16;96632.97;;;17.32;24.96
64064;BME280;50314;50.618;10.642;2023-03-19T08:49:42;96637.78;;;17.28;24.92
64064;BME280;50314;50.618;10.642;2023-03-19T08:52:08;96635.41;;;17.25;25.23
64064;BME280;50314;50.618;10.642;2023-03-19T08:54:33;96642.44;;;17.26;25.18
64064;BME280;50314;50.618;10.642;2023-03-19T08:57:00;96644.09;;;17.27;25.21
64064;BME280;50314;50.618;10.642;2023-03-19T08:59:26;96642.13;;;17.29;25.12
64064;BME280;50314;50.618;10.642;2023-03-19T09:01:52;96649.09;;;17.30;25.07
64064;BME280;50314;50.618;10.642;2023-03-19T09:04:19;96648.81;;;17.33;25.21
64064;BME280;50314;50.618;10.642;2023-03-19T09:06:44;96651.97;;;17.37;25.13
64064;BME280;50314;50.618;10.642;2023-03-19T09:09:10;96661.50;;;17.40;25.06
64064;BME280;50314;50.618;10.642;2023-03-19T09:11:35;96658.81;;;17.40;25.32
64064;BME280;50314;50.618;10.642;2023-03-19T09:14:01;96658.81;;;17.40;25.25
64064;BME280;50314;50.618;10.642;2023-03-19T09:16:26;96654.16;;;17.42;25.16
64064;BME280;50314;50.618;10.642;2023-03-19T09:18:52;96657.50;;;17.44;24.74
64064;BME280;50314;50.618;10.642;2023-03-19T09:21:17;96651.03;;;17.46;24.58
64064;BME280;50314;50.618;10.642;2023-03-19T09:23:43;96659.88;;;17.47;24.74
64064;BME280;50314;50.618;10.642;2023-03-19T09:26:08;96662.66;;;17.45;24.76
64064;BME280;50314;50.618;10.642;2023-03-19T09:28:34;96668.16;;;17.44;25.09
64064;BME280;50314;50.618;10.642;2023-03-19T09:31:00;96669.16;;;17.43;24.99
64064;BME280;50314;50.618;10.642;2023-03-19T09:33:31;96670.81;;;17.44;25.18
64064;BME280;50314;50.618;10.642;2023-03-19T09:35:57;96670.81;;;17.44;24.85
64064;BME280;50314;50.618;10.642;2023-03-19T09:38:22;96675.31;;;17.43;25.11
64064;BME280;50314;50.618;10.642;2023-03-19T09:41:11;96674.81;;;17.40;25.17
64064;BME280;50314;50.618;10.642;2023-03-19T09:46:53;96678.13;;;17.42;25.13
64064;BME280;50314;50.618;10.642;2023-03-19T09:49:26;96681.47;;;17.44;24.95
64064;BME280;50314;50.618;10.642;2023-03-19T09:54:36;96670.22;;;17.50;24.83
64064;BME280;50314;50.618;10.642;2023-03-19T09:57:03;96671.06;;;17.50;25.09
64064;BME280;50314;50.618;10.642;2023-03-19T09:59:29;96679.56;;;17.54;24.82
64064;BME280;50314;50.618;10.642;2023-03-19T10:05:15;96675.25;;;17.53;25.07
64064;BME280;50314;50.618;10.642;2023-03-19T10:14:07;96662.78;;;17.61;25.26
64064;BME280;50314;50.618;10.642;2023-03-19T10:16:29;96667.19;;;17.71;24.91
64064;BME280;50314;50.618;10.642;2023-03-19T10:18:58;96662.38;;;17.74;24.97
64064;BME280;50314;50.618;10.642;2023-03-19T10:21:31;96664.53;;;17.79;25.11
64064;BME280;50314;50.618;10.642;2023-03-19T10:24:06;96660.03;;;17.79;24.94
64064;BME280;50314;50.618;10.642;2023-03-19T10:26:35;96661.94;;;17.87;25.14
64064;BME280;50314;50.618;10.642;2023-03-19T10:29:10;96658.63;;;17.93;25.12
64064;BME280;50314;50.618;10.642;2023-03-19T10:31:42;96658.97;;;17.98;24.85
64064;BME280;50314;50.618;10.642;2023-03-19T10:34:30;96666.47;;;18.03;25.16
64064;BME280;50314;50.618;10.642;2023-03-19T10:39:26;96657.91;;;18.17;24.97
64064;BME280;50314;50.618;10.642;2023-03-19T10:44:36;96655.94;;;18.27;24.74
64064;BME280;50314;50.618;10.642;2023-03-19T10:47:10;96654.59;;;18.31;24.96
64064;BME280;50314;50.618;10.642;2023-03-19T10:49:36;96651.94;;;18.40;24.82
64064;BME280;50314;50.618;10.642;2023-03-19T10:52:02;96652.28;;;18.45;24.66
64064;BME280;50314;50.618;10.642;2023-03-19T10:54:28;96646.31;;;18.51;24.31
64064;BME280;50314;50.618;10.642;2023-03-19T10:56:59;96645.97;;;18.54;24.19
64064;BME280;50314;50.618;10.642;2023-03-19T10:59:35;96647.31;;;18.58;24.20
64064;BME280;50314;50.618;10.642;2023-03-19T11:02:13;96640.63;;;18.70;24.02
64064;BME280;50314;50.618;10.642;2023-03-19T11:04:40;96642.19;;;18.81;24.00
64064;BME280;50314;50.618;10.642;2023-03-19T11:07:14;96650.88;;;18.91;23.86
64064;BME280;50314;50.618;10.642;2023-03-19T11:09:45;96643.34;;;19.03;23.88
64064;BME280;50314;50.618;10.642;2023-03-19T11:12:21;96639.00;;;19.10;23.71
64064;BME280;50314;50.618;10.642;2023-03-19T11:14:49;96638.00;;;19.19;23.89
64064;BME280;50314;50.618;10.642;2023-03-19T11:17:34;96633.97;;;19.23;23.51
64064;BME280;50314;50.618;10.642;2023-03-19T11:22:40;96632.63;;;19.44;23.65
64064;BME280;50314;50.618;10.642;2023-03-19T11:25:17;96630.44;;;19.47;23.21
64064;BME280;50314;50.618;10.642;2023-03-19T11:28:02;96623.06;;;19.58;23.43
64064;BME280;50314;50.618;10.642;2023-03-19T11:36:04;96623.09;;;19.97;23.04
64064;BME280;50314;50.618;10.642;2023-03-19T11:41:30;96608.91;;;20.28;23.29
64064;BME280;50314;50.618;10.642;2023-03-19T11:44:04;96618.91;;;20.34;23.37
64064;BME280;50314;50.618;10.642;2023-03-19T11:46:52;96618.84;;;20.42;23.27
64064;BME280;50314;50.618;10.642;2023-03-19T12:00:12;96600.56;;;20.77;22.53
64064;BME280;50314;50.618;10.642;2023-03-19T12:13:55;96582.88;;;20.91;22.64
64064;BME280;50314;50.618;10.642;2023-03-19T12:16:43;96584.31;;;20.93;22.39
64064;BME280;50314;50.618;10.642;2023-03-19T12:19:26;96584.69;;;20.90;22.33
64064;BME280;50314;50.618;10.642;2023-03-19T12:28:06;96592.44;;;20.85;22.22
64064;BME280;50314;50.618;10.642;2023-03-19T12:30:43;96587.91;;;20.85;22.22
64064;BME280;50314;50.618;10.642;2023-03-19T12:35:40;96582.41;;;20.87;22.27
64064;BME280;50314;50.618;10.642;2023-03-19T12:40:57;96578.25;;;20.84;22.18
64064;BME280;50314;50.618;10.642;2023-03-19T12:43:38;96575.91;;;20.81;22.26
64064;BME280;50314;50.618;10.642;2023-03-19T12:46:15;96571.03;;;20.85;22.30
64064;BME280;50314;50.618;10.642;2023-03-19T12:51:16;96558.69;;;20.84;22.29
64064;BME280;50314;50.618;10.642;2023-03-19T12:53:49;96561.50;;;20.82;22.01
64064;BME280;50314;50.618;10.642;2023-03-19T12:56:21;96558.84;;;20.82;21.95
64064;BME280;50314;50.618;10.642;2023-03-19T12:59:22;96563.09;;;20.77;21.99
64064;BME280;50314;50.618;10.642;2023-03-19T13:02:00;96554.22;;;20.76;22.23
64064;BME280;50314;50.618;10.642;2023-03-19T13:04:34;96563.25;;;20.75;22.07
64064;BME280;50314;50.618;10.642;2023-03-19T13:07:20;96562.13;;;20.70;22.18
64064;BME280;50314;50.618;10.642;2023-03-19T13:10:16;96558.81;;;20.68;22.08
64064;BME280;50314;50.618;10.642;2023-03-19T13:12:42;96561.78;;;20.73;22.23
64064;BME280;50314;50.618;10.642;2023-03-19T13:15:18;96559.75;;;20.75;22.12
64064;BME280;50314;50.618;10.642;2023-03-19T13:21:03;96554.31;;;20.83;22.22
64064;BME280;50314;50.618;10.642;2023-03-19T13:23:36;96551.47;;;20.84;22.12
64064;BME280;50314;50.618;10.642;2023-03-19T13:26:05;96556.63;;;20.86;22.24
64064;BME280;50314;50.618;10.642;2023-03-19T13:28:35;96547.22;;;20.90;22.01
64064;BME280;50314;50.618;10.642;2023-03-19T13:31:04;96546.22;;;20.91;21.98
64064;BME280;50314;50.618;10.642;2023-03-19T13:33:30;96548.53;;;20.94;21.95
64064;BME280;50314;50.618;10.642;2023-03-19T13:36:00;96544.47;;;20.98;22.06
64064;BME280;50314;50.618;10.642;2023-03-19T13:38:37;96534.22;;;21.02;22.07
64064;BME280;50314;50.618;10.642;2023-03-19T13:41:04;96525.47;;;21.08;22.26
64064;BME280;50314;50.618;10.642;2023-03-19T13:46:37;96530.16;;;21.06;22.18
64064;BME280;50314;50.618;10.642;2023-03-19T13:51:38;96519.53;;;21.12;22.05
64064;BME280;50314;50.618;10.642;2023-03-19T13:54:16;96516.69;;;21.14;22.11
64064;BME280;50314;50.618;10.642;2023-03-19T13:59:33;96526.06;;;21.18;21.93
64064;BME280;50314;50.618;10.642;2023-03-19T14:02:00;96522.81;;;21.23;22.12
64064;BME280;50314;50.618;10.642;2023-03-19T14:04:33;96521.97;;;21.22;22.07
64064;BME280;50314;50.618;10.642;2023-03-19T14:07:16;96509.41;;;21.23;21.99
64064;BME280;50314;50.618;10.642;2023-03-19T14:09:50;96506.00;;;21.29;21.95
64064;BME280;50314;50.618;10.642;2023-03-19T14:12:36;96519.41;;;21.29;22.11
64064;BME280;50314;50.618;10.642;2023-03-19T14:15:03;96509.97;;;21.33;21.96
64064;BME280;50314;50.618;10.642;2023-03-19T14:17:44;96508.94;;;21.34;22.04